Pagrindinis puslapis
METAR-TAF:

METAR-TAF

Oro uostai :

Chijas, Graikija

platuma: 38-20N, ilguma: 026-08E, Aukštis: 5 m

Dabartinis oras

Ataskaita buvo paskelbta 1 valandą ir 43 minutes, ne 18:50 UTC
Ramus vėjas
Temperatūra 10°C
Drėgmė 100%
Slėgis 1021 hPa
Matomumas 10 km arba daugiau
nėra debesų žemiau 1500 m ir nėra kamuolinių lietaus debesų

METAR: LGHI 151850Z 00000KT CAVOK 10/10 Q1021

Laikas: 22:33 (20:33 UTC)

Prognozė

Ataskaita buvo paskelbta 33 minutes, ne 20:00 UTC
Prognozė galioja nuo 15 metu 21 UTC su 16 metu 06 UTC
Vėjas 5 kt iš Šiaurės
Matomumas 10 km arba daugiau
Mažai debesys ne aukštis 2000 ft
Tikimybė 30%
nuo 16 metu 00 UTC su 16 metu 06 UTC
Matomumas: 5000 m
Išsisklaidę debesys ne aukštis 800 ft
rūkana

TAF: LGHI 152000Z 1521/1606 36005KT 9999 FEW020 PROB30 1600/1606 5000 BR SCT008

Orai ataskaitas ir orų prognozės (METAR, TAF).

turimą stotys yra geltonos ir raudonos taškus žemėlapyje.

Perkelti pele per norėdami pamatyti stoties vardą.

Tada spustelėkite, norėdami matyti oro stebėjimo ir prognozės.

Norėdami pakeisti žemėlapį: spustelėkite ant žalios mygtukų su juodo kryžiaus žemyn,; žalią mygtuką su brūkšneliu, jei norite nutolinti; arba žalių rodyklių gretimoms žemėlapius.


METAR-TAF: